Time;durP1;ratioP1;P1;durP2;ratioP2;P2;SDS_P1;SDS_P2;PMS_P1;PMS_P2;Temp;Humidity;BMP_temperature;BMP_pressure;BME280_temperature;BME280_humidity;BME280_pressure;Samples;Min_cycle;Max_cycle;Signal;HPM_P1;HPM_P2
2022/03/09 00:00:53;;;;;;;91.45;49.58;;;;;;;;;;5055342;28;20107;-68
2022/03/09 00:03:19;;;;;;;96.78;48.95;;;;;;;;;;5055919;28;20028;-67
2022/03/09 00:05:45;;;;;;;93.05;48.03;;;;;;;;;;5074241;28;20017;-67
2022/03/09 00:08:11;;;;;;;91.07;48.58;;;;;;;;;;5074519;28;20488;-68
2022/03/09 00:10:37;;;;;;;114.03;55.03;;;;;;;;;;5074454;28;20411;-67
2022/03/09 00:13:04;;;;;;;127.20;57.35;;;;;;;;;;5056429;28;20032;-67
2022/03/09 00:15:30;;;;;;;105.43;55.67;;;;;;;;;;5074423;28;20114;-67
2022/03/09 00:17:57;;;;;;;95.18;49.10;;;;;;;;;;5056292;28;20381;-67
2022/03/09 00:20:23;;;;;;;105.43;53.10;;;;;;;;;;5056376;28;20029;-67
2022/03/09 00:22:49;;;;;;;86.40;45.33;;;;;;;;;;5074477;28;20423;-67
2022/03/09 00:25:15;;;;;;;89.55;47.08;;;;;;;;;;5073987;28;20052;-67
2022/03/09 00:27:41;;;;;;;86.50;45.15;;;;;;;;;;5074158;28;20031;-67
2022/03/09 00:30:08;;;;;;;85.82;44.80;;;;;;;;;;5074027;28;20052;-67
2022/03/09 00:32:38;;;;;;;87.97;45.20;;;;;;;;;;5055499;28;20445;-68
2022/03/09 00:35:04;;;;;;;94.30;49.45;;;;;;;;;;5073981;28;20024;-69
2022/03/09 00:37:30;;;;;;;90.53;46.63;;;;;;;;;;5074225;28;20029;-68
2022/03/09 00:39:56;;;;;;;90.75;49.47;;;;;;;;;;5074176;28;20102;-69
2022/03/09 00:42:22;;;;;;;89.70;46.67;;;;;;;;;;5073897;28;20032;-69
2022/03/09 00:47:52;;;;;;;87.63;47.20;;;;;;;;;;5073822;28;20031;-68
2022/03/09 00:50:18;;;;;;;89.13;49.13;;;;;;;;;;5073743;28;20036;-69
2022/03/09 00:52:47;;;;;;;97.57;51.35;;;;;;;;;;5073677;28;20070;-69
2022/03/09 00:55:13;;;;;;;103.32;53.25;;;;;;;;;;5073656;28;20546;-68
2022/03/09 00:57:40;;;;;;;95.38;52.85;;;;;;;;;;5073651;28;20033;-69
2022/03/09 01:00:06;;;;;;;87.72;47.40;;;;;;;;;;5055614;28;20040;-69
2022/03/09 01:02:32;;;;;;;94.35;50.45;;;;;;;;;;5073827;28;20067;-68
2022/03/09 01:04:58;;;;;;;90.43;48.70;;;;;;;;;;5055558;28;20028;-67
2022/03/09 01:07:25;;;;;;;92.70;49.08;;;;;;;;;;5073429;28;20052;-68
2022/03/09 01:09:51;;;;;;;88.60;48.33;;;;;;;;;;5055436;28;20094;-69
2022/03/09 01:12:17;;;;;;;85.75;46.72;;;;;;;;;;5054210;28;20032;-70
2022/03/09 01:14:43;;;;;;;85.57;47.25;;;;;;;;;;5055442;28;20115;-69
2022/03/09 01:17:09;;;;;;;81.30;44.05;;;;;;;;;;5073300;28;20020;-69
2022/03/09 01:19:36;;;;;;;78.28;42.55;;;;;;;;;;5073596;28;20029;-68
2022/03/09 01:22:02;;;;;;;85.07;43.47;;;;;;;;;;5073531;28;20031;-69
2022/03/09 01:24:28;;;;;;;79.07;41.05;;;;;;;;;;5055256;28;20046;-69
2022/03/09 01:26:54;;;;;;;78.15;43.30;;;;;;;;;;5073247;28;20052;-68
2022/03/09 01:29:20;;;;;;;81.53;44.33;;;;;;;;;;5055075;28;20123;-68
2022/03/09 01:31:46;;;;;;;81.82;41.67;;;;;;;;;;5073071;28;20032;-68
2022/03/09 01:34:13;;;;;;;70.57;39.45;;;;;;;;;;5073121;28;20454;-68
2022/03/09 01:36:39;;;;;;;79.82;40.20;;;;;;;;;;5073082;28;20051;-68
2022/03/09 01:39:05;;;;;;;81.03;42.67;;;;;;;;;;5073117;28;20036;-68
2022/03/09 01:41:31;;;;;;;71.90;39.30;;;;;;;;;;5073272;28;20058;-68
2022/03/09 01:44:06;;;;;;;72.93;39.20;;;;;;;;;;5073239;28;20036;-68
2022/03/09 01:46:33;;;;;;;73.13;38.42;;;;;;;;;;5072979;28;20108;-68
2022/03/09 01:48:59;;;;;;;70.70;35.75;;;;;;;;;;5072863;28;20490;-68
2022/03/09 01:51:25;;;;;;;73.10;36.88;;;;;;;;;;5055030;28;20036;-68
2022/03/09 01:53:52;;;;;;;67.07;36.88;;;;;;;;;;5072863;28;20021;-69
2022/03/09 01:56:18;;;;;;;68.25;35.45;;;;;;;;;;5072844;28;20522;-69
2022/03/09 01:58:44;;;;;;;68.25;36.85;;;;;;;;;;5073181;28;20056;-66
2022/03/09 02:01:10;;;;;;;70.60;36.67;;;;;;;;;;5072889;28;20059;-65
2022/03/09 02:03:36;;;;;;;63.72;35.22;;;;;;;;;;5072780;28;20120;-65
2022/03/09 02:06:03;;;;;;;64.03;34.92;;;;;;;;;;5072747;28;20023;-65
2022/03/09 02:11:14;;;;;;;73.88;37.78;;;;;;;;;;5072573;28;20039;-65
2022/03/09 02:13:40;;;;;;;68.45;36.38;;;;;;;;;;5072700;28;20082;-65
2022/03/09 02:16:06;;;;;;;62.95;34.33;;;;;;;;;;5054661;28;20496;-65
2022/03/09 02:18:33;;;;;;;72.25;38.13;;;;;;;;;;5072635;28;20025;-65
2022/03/09 02:21:01;;;;;;;69.20;37.33;;;;;;;;;;5054958;28;20480;-65
2022/03/09 02:23:27;;;;;;;65.93;35.17;;;;;;;;;;5073743;28;20021;-65
2022/03/09 02:25:54;;;;;;;74.43;37.40;;;;;;;;;;5045732;28;20050;-65
2022/03/09 02:28:20;;;;;;;70.50;38.13;;;;;;;;;;5035239;28;20550;-65
2022/03/09 02:30:46;;;;;;;74.18;37.33;;;;;;;;;;5036525;28;20111;-65
2022/03/09 02:33:12;;;;;;;66.80;36.65;;;;;;;;;;5036748;28;20035;-65
2022/03/09 02:35:39;;;;;;;69.55;36.58;;;;;;;;;;5035111;28;20026;-65
2022/03/09 02:38:05;;;;;;;65.25;36.30;;;;;;;;;;5036326;28;20473;-65
2022/03/09 02:40:31;;;;;;;66.25;36.70;;;;;;;;;;5035090;28;20034;-65
2022/03/09 02:42:58;;;;;;;66.55;35.70;;;;;;;;;;5036269;28;20496;-65
2022/03/09 02:45:24;;;;;;;64.90;35.55;;;;;;;;;;5034891;28;20364;-65
2022/03/09 02:47:50;;;;;;;62.08;35.30;;;;;;;;;;5034896;28;20473;-66
2022/03/09 02:50:16;;;;;;;65.68;35.10;;;;;;;;;;5036122;28;20120;-66
2022/03/09 02:52:44;;;;;;;62.00;32.97;;;;;;;;;;5034832;28;20079;-68
2022/03/09 02:55:10;;;;;;;59.40;33.33;;;;;;;;;;5036068;28;20030;-68
2022/03/09 02:57:37;;;;;;;66.00;33.78;;;;;;;;;;5034652;28;20040;-67
2022/03/09 03:00:04;;;;;;;66.93;35.13;;;;;;;;;;5035761;28;20033;-66
2022/03/09 03:02:30;;;;;;;57.42;33.72;;;;;;;;;;5035887;28;20033;-66
2022/03/09 03:04:56;;;;;;;63.10;33.60;;;;;;;;;;5035887;28;20382;-66
2022/03/09 03:07:23;;;;;;;61.65;32.25;;;;;;;;;;5035821;28;20063;-67
2022/03/09 03:09:49;;;;;;;64.97;33.28;;;;;;;;;;5035760;28;20454;-65
2022/03/09 03:12:15;;;;;;;54.53;29.70;;;;;;;;;;5034462;28;20033;-68
2022/03/09 03:14:41;;;;;;;54.33;30.63;;;;;;;;;;5035706;28;20033;-66
2022/03/09 03:17:07;;;;;;;56.38;28.98;;;;;;;;;;5034382;28;20028;-66
2022/03/09 03:19:34;;;;;;;53.55;31.45;;;;;;;;;;5035614;28;20063;-66
2022/03/09 03:22:00;;;;;;;58.08;30.77;;;;;;;;;;5035569;28;20470;-67
2022/03/09 03:24:28;;;;;;;59.10;32.53;;;;;;;;;;5034162;28;20032;-67
2022/03/09 03:26:54;;;;;;;54.45;30.48;;;;;;;;;;5033737;28;20103;-68
2022/03/09 03:29:20;;;;;;;58.05;29.85;;;;;;;;;;5035330;28;20068;-67
2022/03/09 03:31:47;;;;;;;63.80;30.70;;;;;;;;;;5034126;28;20090;-67
2022/03/09 03:34:13;;;;;;;57.57;30.70;;;;;;;;;;5033725;28;20030;-67
2022/03/09 03:36:39;;;;;;;56.78;30.13;;;;;;;;;;5034287;28;20032;-67
2022/03/09 03:39:05;;;;;;;57.47;31.08;;;;;;;;;;5033887;28;20541;-67
2022/03/09 03:41:31;;;;;;;58.47;32.63;;;;;;;;;;5035031;28;20036;-67
2022/03/09 03:43:58;;;;;;;62.90;31.45;;;;;;;;;;5034960;28;20088;-68
2022/03/09 03:46:24;;;;;;;55.43;30.20;;;;;;;;;;5035104;28;20025;-68
2022/03/09 03:48:50;;;;;;;59.20;30.05;;;;;;;;;;5035006;28;20092;-68
2022/03/09 03:51:16;;;;;;;55.35;29.73;;;;;;;;;;5034781;28;20116;-68
2022/03/09 03:53:42;;;;;;;54.28;29.75;;;;;;;;;;5034969;28;20085;-68
2022/03/09 03:56:09;;;;;;;64.38;32.53;;;;;;;;;;5034944;28;20036;-68
2022/03/09 03:58:35;;;;;;;105.25;45.17;;;;;;;;;;5034879;28;20018;-68
2022/03/09 04:01:01;;;;;;;107.30;48.93;;;;;;;;;;5033537;28;20049;-68
2022/03/09 04:03:27;;;;;;;82.05;37.92;;;;;;;;;;5034773;28;20021;-67
2022/03/09 04:05:53;;;;;;;62.05;34.72;;;;;;;;;;5033388;28;20577;-68
2022/03/09 04:08:19;;;;;;;62.53;31.60;;;;;;;;;;5034984;28;20025;-68
2022/03/09 04:10:46;;;;;;;60.90;32.30;;;;;;;;;;5034650;28;20026;-68
2022/03/09 04:13:12;;;;;;;58.13;31.83;;;;;;;;;;5034642;28;20045;-68
2022/03/09 04:15:38;;;;;;;63.00;32.87;;;;;;;;;;5033192;28;20525;-68
2022/03/09 04:18:04;;;;;;;56.88;29.67;;;;;;;;;;5034788;28;20494;-68
2022/03/09 04:20:30;;;;;;;60.40;32.00;;;;;;;;;;5033204;28;20029;-68
2022/03/09 04:22:56;;;;;;;66.07;33.20;;;;;;;;;;5032845;28;20112;-68
2022/03/09 04:25:23;;;;;;;59.10;32.75;;;;;;;;;;5043931;28;20089;-68
2022/03/09 04:27:49;;;;;;;59.28;32.03;;;;;;;;;;5074241;28;20021;-66
2022/03/09 04:30:15;;;;;;;63.60;33.08;;;;;;;;;;5074048;28;20025;-66
2022/03/09 04:32:41;;;;;;;69.47;34.92;;;;;;;;;;5074011;28;20021;-67
2022/03/09 04:35:08;;;;;;;66.70;35.10;;;;;;;;;;5074002;28;20028;-67
2022/03/09 04:37:34;;;;;;;67.20;34.90;;;;;;;;;;5055731;28;20210;-68
2022/03/09 04:40:01;;;;;;;56.67;33.20;;;;;;;;;;5056003;28;20043;-68
2022/03/09 04:42:27;;;;;;;63.67;35.05;;;;;;;;;;5055971;28;20424;-68
2022/03/09 04:44:54;;;;;;;63.90;33.20;;;;;;;;;;5074203;28;20146;-67
2022/03/09 04:47:21;;;;;;;58.87;33.40;;;;;;;;;;5055635;28;20123;-67
2022/03/09 04:49:47;;;;;;;60.47;33.33;;;;;;;;;;5073687;28;20082;-67
2022/03/09 04:52:13;;;;;;;56.50;31.53;;;;;;;;;;5055816;28;20040;-66
2022/03/09 04:54:39;;;;;;;61.77;33.00;;;;;;;;;;5073938;28;20028;-67
2022/03/09 04:57:05;;;;;;;61.67;31.63;;;;;;;;;;5073595;28;20083;-66
2022/03/09 04:59:32;;;;;;;68.65;34.03;;;;;;;;;;5073540;28;20032;-66
2022/03/09 05:01:58;;;;;;;66.50;34.97;;;;;;;;;;5073590;28;20051;-66
2022/03/09 05:04:24;;;;;;;71.95;38.28;;;;;;;;;;5073499;28;20381;-66
2022/03/09 05:06:50;;;;;;;71.43;37.92;;;;;;;;;;5055481;28;20393;-66
2022/03/09 05:09:16;;;;;;;78.00;39.60;;;;;;;;;;5073329;28;20036;-67
2022/03/09 05:11:43;;;;;;;68.78;39.00;;;;;;;;;;5055488;28;20039;-68
2022/03/09 05:14:09;;;;;;;66.43;38.35;;;;;;;;;;5073327;28;20016;-68
2022/03/09 05:16:35;;;;;;;71.03;38.80;;;;;;;;;;5073065;28;20362;-68
2022/03/09 05:19:02;;;;;;;75.32;40.05;;;;;;;;;;5073559;28;20114;-70
2022/03/09 05:21:28;;;;;;;67.45;37.55;;;;;;;;;;5073293;28;20028;-68
2022/03/09 05:23:54;;;;;;;69.68;38.90;;;;;;;;;;5073188;28;20107;-68
2022/03/09 05:26:20;;;;;;;68.43;39.75;;;;;;;;;;5083907;28;20436;-68
2022/03/09 05:28:47;;;;;;;75.07;40.53;;;;;;;;;;5093287;28;20024;-67
2022/03/09 05:31:13;;;;;;;70.18;38.88;;;;;;;;;;5093289;28;20384;-67
2022/03/09 05:33:39;;;;;;;75.37;39.77;;;;;;;;;;5093543;28;20115;-67
2022/03/09 05:36:05;;;;;;;84.57;42.97;;;;;;;;;;5093501;28;20035;-67
2022/03/09 05:38:32;;;;;;;79.22;43.00;;;;;;;;;;5093186;28;20028;-68
2022/03/09 05:40:58;;;;;;;74.37;39.33;;;;;;;;;;5093209;28;20039;-69
2022/03/09 05:43:25;;;;;;;75.65;40.88;;;;;;;;;;5093204;28;20028;-70
2022/03/09 05:45:51;;;;;;;73.38;40.47;;;;;;;;;;5075001;28;20073;-67
2022/03/09 05:48:17;;;;;;;71.95;39.50;;;;;;;;;;5075027;28;20028;-70
2022/03/09 05:50:43;;;;;;;74.40;40.08;;;;;;;;;;5093023;28;20028;-67
2022/03/09 05:53:09;;;;;;;75.70;37.72;;;;;;;;;;5093149;28;20116;-67
2022/03/09 05:55:35;;;;;;;73.70;39.53;;;;;;;;;;5093104;28;20040;-67
2022/03/09 05:58:01;;;;;;;74.80;41.00;;;;;;;;;;5093481;28;20058;-66
2022/03/09 06:00:28;;;;;;;81.72;41.55;;;;;;;;;;5097097;28;20090;-66
2022/03/09 06:02:54;;;;;;;76.57;42.10;;;;;;;;;;5096919;28;20514;-67
2022/03/09 06:05:20;;;;;;;79.60;43.83;;;;;;;;;;5097024;28;20051;-66
2022/03/09 06:07:47;;;;;;;84.25;47.17;;;;;;;;;;5079144;28;20031;-67
2022/03/09 06:10:13;;;;;;;84.50;45.10;;;;;;;;;;5078658;28;20028;-65
2022/03/09 06:12:39;;;;;;;86.13;45.60;;;;;;;;;;5096928;28;20073;-66
2022/03/09 06:15:06;;;;;;;86.75;46.30;;;;;;;;;;5079032;28;20115;-64
2022/03/09 06:17:32;;;;;;;106.57;50.55;;;;;;;;;;5096861;28;20460;-64
2022/03/09 06:19:58;;;;;;;83.63;44.65;;;;;;;;;;5096782;28;20028;-64
2022/03/09 06:22:24;;;;;;;82.82;45.22;;;;;;;;;;5078618;28;20073;-64
2022/03/09 06:24:50;;;;;;;81.65;43.38;;;;;;;;;;5096563;28;20032;-65
2022/03/09 06:27:17;;;;;;;84.20;44.63;;;;;;;;;;5078529;28;20028;-65
2022/03/09 06:29:43;;;;;;;81.18;44.60;;;;;;;;;;5078360;28;20388;-65
2022/03/09 06:32:09;;;;;;;83.13;43.35;;;;;;;;;;5096615;28;20075;-64
2022/03/09 06:34:35;;;;;;;99.38;48.75;;;;;;;;;;5078268;28;20442;-64
2022/03/09 06:37:01;;;;;;;85.88;43.90;;;;;;;;;;5096751;28;20480;-65
2022/03/09 06:39:28;;;;;;;80.75;44.03;;;;;;;;;;5096645;28;20457;-65
2022/03/09 06:41:54;;;;;;;79.80;44.53;;;;;;;;;;5096564;28;20032;-65
2022/03/09 06:44:22;;;;;;;79.70;44.50;;;;;;;;;;5078051;28;20035;-65
2022/03/09 06:46:49;;;;;;;72.30;40.83;;;;;;;;;;5078102;28;20028;-66
2022/03/09 06:49:15;;;;;;;68.85;40.38;;;;;;;;;;5096401;28;20494;-66
2022/03/09 06:51:41;;;;;;;67.53;37.85;;;;;;;;;;5096144;28;20574;-66
2022/03/09 06:54:07;;;;;;;69.68;37.60;;;;;;;;;;5096176;28;20088;-66
2022/03/09 06:56:33;;;;;;;77.80;39.80;;;;;;;;;;5077854;28;20114;-67
2022/03/09 06:59:00;;;;;;;73.57;39.60;;;;;;;;;;5077796;28;20077;-67
2022/03/09 07:01:26;;;;;;;81.40;41.92;;;;;;;;;;5077767;28;20024;-67
2022/03/09 07:03:52;;;;;;;74.65;39.28;;;;;;;;;;5095949;28;20032;-67
2022/03/09 07:06:18;;;;;;;64.50;34.13;;;;;;;;;;5077611;28;20020;-66
2022/03/09 07:08:45;;;;;;;64.10;34.70;;;;;;;;;;5095696;28;20100;-66
2022/03/09 07:11:11;;;;;;;66.05;36.03;;;;;;;;;;5077621;28;20384;-66
2022/03/09 07:13:37;;;;;;;63.35;35.28;;;;;;;;;;5077719;28;20032;-63
2022/03/09 07:16:04;;;;;;;63.85;35.47;;;;;;;;;;5095814;28;20032;-64
2022/03/09 07:18:30;;;;;;;66.43;34.75;;;;;;;;;;5095489;28;20028;-63
2022/03/09 07:20:56;;;;;;;60.38;34.83;;;;;;;;;;5077350;28;20333;-64
2022/03/09 07:23:22;;;;;;;84.22;43.10;;;;;;;;;;5077795;28;20108;-64
2022/03/09 07:25:48;;;;;;;61.65;35.13;;;;;;;;;;5074921;28;20055;-66
2022/03/09 07:28:15;;;;;;;67.30;36.08;;;;;;;;;;5059844;28;20362;-65
2022/03/09 07:30:41;;;;;;;67.47;36.22;;;;;;;;;;5084594;28;20025;-66
2022/03/09 07:33:07;;;;;;;71.50;38.08;;;;;;;;;;5084430;28;20135;-66
2022/03/09 07:35:33;;;;;;;65.18;36.08;;;;;;;;;;5067721;28;20903;-65
2022/03/09 07:38:00;;;;;;;58.78;33.00;;;;;;;;;;5084254;28;20017;-67
2022/03/09 07:40:26;;;;;;;58.53;31.55;;;;;;;;;;5084338;28;20032;-67
2022/03/09 07:42:52;;;;;;;52.78;30.25;;;;;;;;;;5084503;28;20104;-67
2022/03/09 07:45:18;;;;;;;58.38;32.78;;;;;;;;;;5060751;28;20369;-67
2022/03/09 07:47:44;;;;;;;54.20;33.60;;;;;;;;;;5074968;28;20143;-67
2022/03/09 07:50:10;;;;;;;69.65;39.67;;;;;;;;;;5074822;28;20078;-65
2022/03/09 07:52:37;;;;;;;58.72;32.83;;;;;;;;;;5074925;28;20039;-65
2022/03/09 07:55:04;;;;;;;58.83;32.70;;;;;;;;;;5081002;28;20384;-65
2022/03/09 07:57:30;;;;;;;59.53;32.70;;;;;;;;;;5093790;28;20020;-65
2022/03/09 07:59:57;;;;;;;56.05;30.17;;;;;;;;;;5093080;28;20047;-66
2022/03/09 08:02:23;;;;;;;61.75;32.08;;;;;;;;;;5094840;28;20027;-66
2022/03/09 08:04:49;;;;;;;60.08;31.05;;;;;;;;;;5090739;28;20031;-66
2022/03/09 08:07:15;;;;;;;63.05;33.22;;;;;;;;;;5090304;28;20100;-66
2022/03/09 08:09:41;;;;;;;63.15;33.58;;;;;;;;;;5055620;28;20036;-66
2022/03/09 08:12:11;;;;;;;59.03;30.77;;;;;;;;;;5074085;28;20112;-66
2022/03/09 08:14:37;;;;;;;53.13;28.95;;;;;;;;;;5091412;28;20112;-66
2022/03/09 08:17:04;;;;;;;58.10;30.77;;;;;;;;;;5093673;28;20077;-67
2022/03/09 08:19:30;;;;;;;87.85;43.42;;;;;;;;;;5093731;28;20043;-66
2022/03/09 08:21:56;;;;;;;70.07;33.13;;;;;;;;;;5093144;28;20098;-67
2022/03/09 08:24:22;;;;;;;72.95;38.10;;;;;;;;;;5093664;28;20144;-66
2022/03/09 08:26:49;;;;;;;68.15;32.97;;;;;;;;;;5093255;28;20046;-65
2022/03/09 08:29:16;;;;;;;61.75;32.65;;;;;;;;;;5093967;28;20031;-63
2022/03/09 08:31:42;;;;;;;68.60;36.67;;;;;;;;;;5093943;28;20036;-65
2022/03/09 08:34:08;;;;;;;68.95;35.83;;;;;;;;;;5093680;28;20032;-63
2022/03/09 08:36:34;;;;;;;64.68;31.88;;;;;;;;;;5075171;28;20114;-64
2022/03/09 08:39:01;;;;;;;63.15;32.25;;;;;;;;;;5075326;28;20032;-65
2022/03/09 08:41:29;;;;;;;401.95;148.25;;;;;;;;;;5075288;28;20024;-67
2022/03/09 08:43:56;;;;;;;134.07;60.17;;;;;;;;;;5075256;28;20439;-66
2022/03/09 08:46:22;;;;;;;70.82;35.50;;;;;;;;;;5093467;28;20475;-69
2022/03/09 08:48:48;;;;;;;47.50;24.17;;;;;;;;;;5093139;28;20107;-67
2022/03/09 08:51:17;;;;;;;35.75;19.50;;;;;;;;;;5093603;28;20039;-69
2022/03/09 08:53:44;;;;;;;77.22;40.50;;;;;;;;;;5093376;28;20020;-64
2022/03/09 08:56:10;;;;;;;109.43;56.75;;;;;;;;;;5075268;28;20028;-67
2022/03/09 08:58:36;;;;;;;61.83;36.08;;;;;;;;;;5093440;28;20024;-67
2022/03/09 09:01:03;;;;;;;47.45;26.05;;;;;;;;;;5093688;28;20059;-65
2022/03/09 09:03:29;;;;;;;51.28;32.63;;;;;;;;;;5072298;28;20382;-68
2022/03/09 09:05:55;;;;;;;45.28;28.73;;;;;;;;;;5065655;28;20388;-64
2022/03/09 09:08:22;;;;;;;34.33;21.75;;;;;;;;;;5088986;28;20052;-65
2022/03/09 09:10:48;;;;;;;28.98;16.55;;;;;;;;;;5093363;28;20105;-64
2022/03/09 09:13:14;;;;;;;27.10;16.20;;;;;;;;;;5093244;28;20032;-67
2022/03/09 09:15:41;;;;;;;39.70;17.83;;;;;;;;;;5093362;28;20488;-66
2022/03/09 09:18:07;;;;;;;33.67;18.98;;;;;;;;;;5093275;28;20028;-65
2022/03/09 09:20:34;;;;;;;46.90;30.98;;;;;;;;;;5075082;28;20085;-65
2022/03/09 09:23:01;;;;;;;37.97;22.95;;;;;;;;;;5093280;28;20031;-66
2022/03/09 09:25:27;;;;;;;49.53;30.23;;;;;;;;;;5092849;28;20052;-64
2022/03/09 09:27:54;;;;;;;32.88;20.15;;;;;;;;;;5091521;28;20016;-65
2022/03/09 09:30:21;;;;;;;28.05;17.48;;;;;;;;;;5091209;28;20025;-66
2022/03/09 09:32:48;;;;;;;38.28;23.33;;;;;;;;;;5092337;28;20067;-65
2022/03/09 09:35:14;;;;;;;27.55;16.65;;;;;;;;;;5074831;28;20028;-66
2022/03/09 09:37:42;;;;;;;25.05;15.82;;;;;;;;;;5093161;28;20024;-66
2022/03/09 09:40:09;;;;;;;24.85;14.57;;;;;;;;;;5092961;28;20069;-66
2022/03/09 09:42:36;;;;;;;23.10;13.75;;;;;;;;;;5093055;28;20453;-67
2022/03/09 09:45:03;;;;;;;26.63;14.25;;;;;;;;;;5074801;28;20028;-64
2022/03/09 09:47:30;;;;;;;28.30;16.83;;;;;;;;;;5093196;28;20025;-64
2022/03/09 09:49:56;;;;;;;35.45;21.55;;;;;;;;;;5093020;28;20028;-64
2022/03/09 09:52:26;;;;;;;40.83;24.48;;;;;;;;;;5074638;28;20032;-65
2022/03/09 09:54:53;;;;;;;42.95;28.48;;;;;;;;;;5074688;28;20135;-65
2022/03/09 09:57:20;;;;;;;40.15;23.10;;;;;;;;;;5092870;28;20108;-64
2022/03/09 09:59:46;;;;;;;33.45;22.33;;;;;;;;;;5092757;28;20118;-68
2022/03/09 10:02:12;;;;;;;32.35;20.20;;;;;;;;;;5074533;28;20129;-65
2022/03/09 10:04:40;;;;;;;34.85;19.52;;;;;;;;;;5092868;28;20024;-64
2022/03/09 10:07:06;;;;;;;111.32;49.75;;;;;;;;;;5074533;28;20378;-65
2022/03/09 10:09:36;;;;;;;90.28;44.08;;;;;;;;;;5053924;28;20040;-66
2022/03/09 10:12:04;;;;;;;100.70;51.03;;;;;;;;;;5072275;28;20032;-66
2022/03/09 10:14:53;;;;;;;65.70;33.80;;;;;;;;;;5072023;28;20557;-65
2022/03/09 10:17:26;;;;;;;131.10;64.25;;;;;;;;;;5072510;28;20377;-64
2022/03/09 10:19:58;;;;;;;54.72;27.83;;;;;;;;;;5072230;28;20025;-66
2022/03/09 10:22:28;;;;;;;31.30;20.35;;;;;;;;;;5072510;28;20056;-68
2022/03/09 10:24:56;;;;;;;32.40;17.87;;;;;;;;;;5072271;28;20077;-65
2022/03/09 10:27:48;;;;;;;27.23;16.20;;;;;;;;;;5072454;28;20021;-64
2022/03/09 10:30:16;;;;;;;35.75;17.27;;;;;;;;;;5067428;28;20512;-66
2022/03/09 10:32:42;;;;;;;28.25;17.25;;;;;;;;;;5054250;28;20029;-65
2022/03/09 10:35:08;;;;;;;28.73;15.07;;;;;;;;;;5054261;28;20127;-65
2022/03/09 10:37:38;;;;;;;24.90;15.05;;;;;;;;;;5072228;28;20025;-65
2022/03/09 10:40:11;;;;;;;25.95;15.60;;;;;;;;;;5072123;28;20032;-64
2022/03/09 10:42:37;;;;;;;29.38;16.05;;;;;;;;;;5072198;28;20036;-65
2022/03/09 10:45:08;;;;;;;29.48;16.42;;;;;;;;;;5073989;28;20436;-66
2022/03/09 10:47:39;;;;;;;29.23;17.38;;;;;;;;;;5057988;28;20355;-64
2022/03/09 10:50:08;;;;;;;43.50;26.60;;;;;;;;;;5057791;28;20056;-64
2022/03/09 10:52:54;;;;;;;39.38;22.45;;;;;;;;;;5075879;28;20036;-64
2022/03/09 10:55:20;;;;;;;32.20;18.17;;;;;;;;;;5075808;28;20056;-65
2022/03/09 10:57:46;;;;;;;38.83;20.95;;;;;;;;;;5076144;28;20111;-64
2022/03/09 11:00:13;;;;;;;36.97;22.63;;;;;;;;;;5075799;28;20461;-64
2022/03/09 11:02:50;;;;;;;36.92;21.63;;;;;;;;;;5075757;28;20028;-64
2022/03/09 11:05:22;;;;;;;29.88;19.15;;;;;;;;;;5057729;28;20232;-63
2022/03/09 11:07:48;;;;;;;37.80;23.05;;;;;;;;;;5075715;28;20089;-64
2022/03/09 11:10:15;;;;;;;27.35;17.17;;;;;;;;;;5075734;28;20081;-63
2022/03/09 11:12:41;;;;;;;28.63;17.65;;;;;;;;;;5075581;28;20496;-64
2022/03/09 11:15:08;;;;;;;25.08;15.48;;;;;;;;;;5075296;28;20452;-64
2022/03/09 11:17:34;;;;;;;32.33;16.13;;;;;;;;;;5075505;28;20020;-64
2022/03/09 11:20:01;;;;;;;28.70;16.27;;;;;;;;;;5075478;28;20032;-64
2022/03/09 11:22:27;;;;;;;32.55;17.08;;;;;;;;;;5075361;28;20093;-64
2022/03/09 11:24:54;;;;;;;32.83;20.25;;;;;;;;;;5074957;28;20025;-64
2022/03/09 11:27:20;;;;;;;37.75;21.27;;;;;;;;;;5075382;28;20457;-65
2022/03/09 11:29:46;;;;;;;52.13;27.63;;;;;;;;;;5074896;28;20567;-63
2022/03/09 11:32:14;;;;;;;46.92;25.40;;;;;;;;;;5075450;28;20031;-65
2022/03/09 11:34:43;;;;;;;45.25;23.23;;;;;;;;;;5075132;28;20028;-66
2022/03/09 11:37:12;;;;;;;30.27;18.05;;;;;;;;;;5075129;28;20166;-65
2022/03/09 11:39:40;;;;;;;31.85;17.52;;;;;;;;;;5057103;28;20040;-64
2022/03/09 11:42:34;;;;;;;35.63;20.00;;;;;;;;;;5074983;28;20035;-64
2022/03/09 11:45:15;;;;;;;45.55;23.08;;;;;;;;;;5053131;28;20036;-64
2022/03/09 11:47:58;;;;;;;33.17;18.13;;;;;;;;;;5074539;28;20488;-65
2022/03/09 11:50:25;;;;;;;57.85;32.83;;;;;;;;;;5074517;28;20029;-62
2022/03/09 11:53:10;;;;;;;45.22;28.50;;;;;;;;;;5074979;28;20107;-67
2022/03/09 11:55:36;;;;;;;60.47;34.17;;;;;;;;;;5074006;28;20040;-63
2022/03/09 11:58:12;;;;;;;37.65;22.85;;;;;;;;;;5080004;28;20020;-63
2022/03/09 12:00:57;;;;;;;35.05;20.25;;;;;;;;;;5094376;28;20024;-64
2022/03/09 12:03:39;;;;;;;39.42;23.05;;;;;;;;;;5094792;28;20354;-63
2022/03/09 12:06:05;;;;;;;37.42;21.77;;;;;;;;;;5094877;28;20020;-63
2022/03/09 12:08:49;;;;;;;35.40;20.67;;;;;;;;;;5094763;28;20062;-66
2022/03/09 12:11:19;;;;;;;28.77;17.38;;;;;;;;;;5094707;28;20115;-64
2022/03/09 12:13:45;;;;;;;30.60;17.88;;;;;;;;;;5093871;28;20032;-64
2022/03/09 12:16:14;;;;;;;27.88;17.33;;;;;;;;;;5076048;28;20028;-63
2022/03/09 12:18:50;;;;;;;31.55;17.33;;;;;;;;;;5094258;28;20020;-64
2022/03/09 12:21:42;;;;;;;28.20;15.60;;;;;;;;;;5076108;28;20024;-63
2022/03/09 12:24:14;;;;;;;28.77;16.50;;;;;;;;;;5048617;28;20039;-64
2022/03/09 12:26:44;;;;;;;29.98;17.45;;;;;;;;;;5093865;28;20119;-64
2022/03/09 12:29:26;;;;;;;33.85;18.02;;;;;;;;;;5094166;28;20024;-64
2022/03/09 12:32:11;;;;;;;29.52;16.00;;;;;;;;;;5094579;28;20062;-65
2022/03/09 12:34:39;;;;;;;29.63;17.42;;;;;;;;;;5094273;28;20024;-65
2022/03/09 12:37:06;;;;;;;27.63;17.52;;;;;;;;;;5094195;28;20020;-64
2022/03/09 12:39:32;;;;;;;31.20;18.80;;;;;;;;;;5094375;28;20099;-64
2022/03/09 12:42:00;;;;;;;29.20;16.73;;;;;;;;;;5094318;28;20034;-64
2022/03/09 12:44:28;;;;;;;23.02;15.13;;;;;;;;;;5074764;28;20031;-64
2022/03/09 12:46:54;;;;;;;23.98;14.55;;;;;;;;;;5093981;28;20032;-64
2022/03/09 12:49:22;;;;;;;31.50;16.88;;;;;;;;;;5075736;28;20032;-64
2022/03/09 12:51:52;;;;;;;31.10;16.13;;;;;;;;;;5093658;28;20061;-64
2022/03/09 12:54:46;;;;;;;29.92;16.15;;;;;;;;;;5093907;28;20376;-64
2022/03/09 12:57:26;;;;;;;31.00;17.98;;;;;;;;;;5090282;28;20043;-64
2022/03/09 13:00:09;;;;;;;34.50;18.88;;;;;;;;;;5093785;28;20032;-64
2022/03/09 13:02:38;;;;;;;34.80;18.60;;;;;;;;;;5093727;28;20035;-64
2022/03/09 13:05:04;;;;;;;32.88;18.27;;;;;;;;;;5093746;28;20605;-64
2022/03/09 13:07:30;;;;;;;28.00;17.52;;;;;;;;;;5093572;28;20031;-64
2022/03/09 13:10:06;;;;;;;30.33;17.55;;;;;;;;;;5093430;28;20032;-64
2022/03/09 13:12:32;;;;;;;29.63;17.52;;;;;;;;;;5075603;28;20393;-63
2022/03/09 13:15:01;;;;;;;27.50;16.40;;;;;;;;;;5093500;28;20048;-64
2022/03/09 13:17:28;;;;;;;28.08;18.20;;;;;;;;;;5093383;28;20063;-64
2022/03/09 13:19:54;;;;;;;23.52;15.65;;;;;;;;;;5093381;28;20457;-64
2022/03/09 13:22:23;;;;;;;27.83;15.30;;;;;;;;;;5093269;28;20038;-64
2022/03/09 13:25:09;;;;;;;25.83;15.45;;;;;;;;;;5092562;28;20465;-63
2022/03/09 13:27:36;;;;;;;35.95;22.10;;;;;;;;;;5053210;28;20037;-63
2022/03/09 13:30:15;;;;;;;32.72;19.58;;;;;;;;;;5051720;28;20545;-64
2022/03/09 13:32:42;;;;;;;38.50;20.48;;;;;;;;;;5052721;28;20561;-64
2022/03/09 13:35:09;;;;;;;32.78;20.88;;;;;;;;;;5053094;28;20107;-64
2022/03/09 13:37:39;;;;;;;48.55;27.40;;;;;;;;;;5053044;28;20047;-64
2022/03/09 13:40:07;;;;;;;34.13;21.13;;;;;;;;;;5052961;28;20033;-64
2022/03/09 13:42:35;;;;;;;26.60;16.05;;;;;;;;;;5052969;28;20079;-64
2022/03/09 13:45:09;;;;;;;31.92;17.70;;;;;;;;;;5052707;28;20377;-67
2022/03/09 13:47:54;;;;;;;28.75;17.83;;;;;;;;;;5052978;28;20378;-65
2022/03/09 13:50:21;;;;;;;27.75;16.75;;;;;;;;;;5052773;28;20064;-64
2022/03/09 13:52:48;;;;;;;29.27;16.65;;;;;;;;;;5051544;28;20095;-65
2022/03/09 13:55:25;;;;;;;41.42;22.13;;;;;;;;;;5052758;28;20056;-66
2022/03/09 13:58:01;;;;;;;32.95;18.75;;;;;;;;;;5051425;28;20028;-65
2022/03/09 14:00:30;;;;;;;24.88;15.30;;;;;;;;;;5051141;28;20036;-66
2022/03/09 14:02:58;;;;;;;30.83;16.33;;;;;;;;;;5051450;28;20021;-64
2022/03/09 14:05:28;;;;;;;27.48;16.27;;;;;;;;;;5052730;28;20061;-64
2022/03/09 14:07:54;;;;;;;27.70;16.83;;;;;;;;;;5052474;28;20021;-67
2022/03/09 14:10:26;;;;;;;31.88;18.50;;;;;;;;;;5052509;28;20021;-65
2022/03/09 14:12:53;;;;;;;38.25;16.42;;;;;;;;;;5052643;28;20071;-64
2022/03/09 14:15:19;;;;;;;33.65;16.83;;;;;;;;;;5052604;28;20028;-66
2022/03/09 14:17:45;;;;;;;32.80;17.92;;;;;;;;;;5052204;28;20021;-65
2022/03/09 14:20:12;;;;;;;37.72;19.00;;;;;;;;;;5055173;28;20029;-67
2022/03/09 14:22:56;;;;;;;33.47;19.30;;;;;;;;;;5056524;28;20017;-66
2022/03/09 14:25:22;;;;;;;39.67;20.20;;;;;;;;;;5061973;28;20059;-65